METAR anciennes Texel International Airport (EHTX)

18 août 2022

Temps Code Temps Temp. Vue Base cloud Vent METAR/SPECI
20:25
V
19 °C 10 km+ - 070° 070° 5 kt METAR EHVL 181825Z AUTO 07005KT 9999 NCD 19/15 Q1013 BLU
19:55
V
20 °C 10 km+ 38.000 ft 030° 030° 7 kt METAR EHVL 181755Z AUTO 03007KT 9999 OVC380 20/15 Q1013 BLU
19:25
V
20 °C 10 km+ - 030° 030° 7 kt METAR EHVL 181725Z AUTO 03007KT 9999 SCT380 20/15 Q1013 BLU
18:55
V
21 °C 10 km+ - 020° 020° 8 kt METAR EHVL 181655Z AUTO 02008KT 9999 NCD 21/15 Q1013 BLU
18:25
V
21 °C 10 km+ - 020° 020° 7 kt METAR EHVL 181625Z AUTO 02007KT 9999 NCD 21/15 Q1014 BLU
18:00
V
22 °C 10 km+ - 020° 020° 7 kt METAR EHVL 181600Z AUTO 02007KT 340V050 9999 FEW020 SCT026 22/15 Q1014 BLU
17:55
M
22 °C 10 km+ 2.000 ft 010° 010° 6 kt METAR EHVL 181555Z AUTO 01006KT 9999 BKN020 BKN028 22/16 Q1014 WHT
17:34
M
22 °C 10 km+ 2.200 ft 010° 010° 6 kt METAR EHVL 181534Z AUTO 01006KT 9999 BKN022 OVC025 22/15 Q1014 WHT
17:27
M
22 °C 10 km+ 2.600 ft 010° 010° 7 kt METAR EHVL 181527Z AUTO 01007KT 9999 SCT022 OVC026 22/16 Q1014 WHT
17:25
M
22 °C 10 km+ 2.700 ft 020° 020° 7 kt METAR EHVL 181525Z AUTO 02007KT 9999 SCT024 BKN027 22/15 Q1014 WHT
17:12
V
21 °C 10 km+ - 030° 030° 7 kt METAR EHVL 181512Z AUTO 03007KT 9999 SCT025 SCT028 21/15 Q1014 BLU
17:06
V
20 °C 10 km+ - 030° 030° 6 kt METAR EHVL 181506Z AUTO 03006KT 9999 SCT024 20/15 Q1014 WHT
16:55
M
21 °C 10 km+ 2.600 ft 030° 030° 5 kt METAR EHVL 181455Z AUTO 03005KT 350V060 9999 BKN026 BKN029 21/15 Q1014 BLU
16:25
V
22 °C 10 km+ 35.000 ft 020° 020° 8 kt METAR EHVL 181425Z AUTO 02008KT 9999 OVC350 22/16 Q1014 BLU
15:55
V
22 °C 10 km+ 35.000 ft 020° 020° 9 kt METAR EHVL 181355Z AUTO 02009KT 9999 OVC350 22/15 Q1014 BLU
15:25
V
22 °C 10 km+ 35.000 ft 020° 020° 9 kt METAR EHVL 181325Z AUTO 02009KT 9999 BKN350 22/15 Q1014 BLU
14:55
V
22 °C 10 km+ - 030° 030° 9 kt METAR EHVL 181255Z AUTO 03009KT 9999 NCD 22/16 Q1014 BLU
14:25
V
22 °C 10 km+ - 020° 020° 8 kt METAR EHVL 181225Z AUTO 02008KT 9999 SCT360 22/16 Q1014 BLU
13:55
V
21 °C 10 km+ - 030° 030° 9 kt METAR EHVL 181155Z AUTO 03009KT 9999 SCT300 21/16 Q1014 BLU
13:25
V
22 °C 10 km+ 31.000 ft 030° 030° 9 kt METAR EHVL 181125Z AUTO 03009KT 9999 OVC310 22/16 Q1014 BLU
12:55
V
21 °C 10 km+ - 030° 030° 9 kt METAR EHVL 181055Z AUTO 03009KT 9999 NCD 21/16 Q1014 BLU
12:25
V
20 °C 10 km+ 3.400 ft 030° 030° 9 kt METAR EHVL 181025Z AUTO 03009KT 9999 FEW023 BKN034 20/16 Q1014 BLU
12:04
M
20 °C 10 km+ 2.900 ft 020° 020° 9 kt METAR EHVL 181004Z AUTO 02009KT 9999 FEW016 OVC029 20/17 Q1014 BLU
11:57
M
20 °C 10 km+ 1.700 ft 020° 020° 9 kt METAR EHVL 180957Z AUTO 02009KT 310V050 9999 FEW014 BKN017 OVC029 20/17 Q1014 WHT
11:55
M
20 °C 10 km+ 1.700 ft 030° 030° 8 kt METAR EHVL 180955Z AUTO 03008KT 310V060 9999 SCT014 BKN017 BKN021 20/17 Q1014 GRN
11:25
V
21 °C 10 km+ - 020° 020° 8 kt METAR EHVL 180925Z AUTO 02008KT 9999 NCD 21/17 Q1014 BLU
11:09
V
20 °C 10 km+ - 030° 030° 9 kt METAR EHVL 180909Z AUTO 03009KT 9999 FEW016 20/17 Q1014 BLU
10:59
M
21 °C 10 km+ 1.600 ft 030° 030° 10 kt METAR EHVL 180859Z AUTO 03010KT 9999 FEW014 BKN016 BKN025 21/17 Q1014 WHT
10:55
M
21 °C 10 km+ 1.600 ft 040° 040° 10 kt METAR EHVL 180855Z AUTO 04010KT 9999 SCT014 BKN016 BKN021 21/17 Q1014 GRN
10:35
M
20 °C 10 km+ 1.600 ft 030° 030° 10 kt METAR EHVL 180835Z AUTO 03010KT 9999 FEW013 BKN016 BKN019 20/17 Q1014 WHT
10:26
M
20 °C 10 km+ 1.500 ft 040° 040° 10 kt METAR EHVL 180826Z AUTO 04010KT 9999 SCT012 BKN015 20/17 Q1014 GRN
10:25
V
20 °C 10 km+ - 040° 040° 11 kt METAR EHVL 180825Z AUTO 04011KT 9999 SCT012 SCT016 20/17 Q1014 GRN
10:16
V
20 °C 10 km+ - 030° 030° 11 kt METAR EHVL 180816Z AUTO 03011KT 9999 FEW011 20/17 Q1014 BLU
10:10
V
20 °C 10 km+ - 030° 030° 12 kt METAR EHVL 180810Z AUTO 03012KT 9999 SCT011 20/17 Q1014 GRN
09:55
M
20 °C 10 km+ 1.100 ft 030° 030° 12 kt METAR EHVL 180755Z AUTO 03012KT 9999 BKN011 20/17 Q1014 GRN
09:25
V
19 °C 10 km+ - 030° 030° 14 kt METAR EHVL 180725Z AUTO 03014KT 9999 FEW009 19/17 Q1013 BLU
09:07
V
19 °C 10 km+ - 040° 040° 14 kt METAR EHVL 180707Z AUTO 04014KT 9999 SCT010 19/17 Q1013 GRN
09:04
V
19 °C 10 km+ - 030° 030° 15 kt METAR EHVL 180704Z AUTO 03015KT 9999 FEW011 19/17 Q1013 BLU
08:55
V
19 °C 10 km+ - 030° 030° 14 kt METAR EHVL 180655Z AUTO 03014KT 9999 SCT010 SCT013 19/17 Q1013 GRN
08:25
M
18 °C 10 km+ 1.000 ft 030° 030° 14 kt METAR EHVL 180625Z AUTO 03014KT 9999 BKN010 BKN013 BKN022 18/17 Q1013 GRN
07:56
M
18 °C 10 km+ 1.000 ft 030° 030° 15 kt METAR EHVL 180556Z AUTO 03015KT 9999 SCT009 BKN010 18/17 Q1013 GRN
07:55
V
18 °C 10 km+ - 030° 030° 16 kt METAR EHVL 180555Z AUTO 03016KT 9999 SCT009 SCT010 18/17 Q1013 GRN
07:33
M
18 °C 10 km+ 1.000 ft 030° 030° 15 kt METAR EHVL 180533Z AUTO 03015KT 9999 FEW007 SCT009 BKN010 18/17 Q1013 GRN
07:29
M
18 °C 10 km+ 1.700 ft 030° 030° 14 kt METAR EHVL 180529Z AUTO 03014KT 9999 FEW008 SCT009 BKN017 18/17 Q1013 GRN
07:25
M
18 °C 10 km+ 1.700 ft 030° 030° 15 kt METAR EHVL 180525Z AUTO 03015KT 9999 FEW008 SCT012 BKN017 18/17 Q1013 GRN
06:59
M
18 °C 10 km+ 1.400 ft 030° 030° 12 kt METAR EHVL 180459Z AUTO 03012KT 9999 FEW009 SCT011 BKN014 18/17 Q1013 GRN
06:55
M
18 °C 10 km+ 1.500 ft 020° 020° 11 kt METAR EHVL 180455Z AUTO 02011KT 9999 FEW009 SCT010 BKN015 18/17 Q1013 GRN
06:44
M
18 °C 10 km+ 1.500 ft 020° 020° 12 kt METAR EHVL 180444Z AUTO 02012KT 9999 FEW009 SCT011 BKN015 18/17 Q1013 GRN
06:35
V
18 °C 10 km+ 6.300 ft 020° 020° 14 kt METAR EHVL 180435Z AUTO 02014KT 9999 FEW006 SCT014 OVC063 18/17 Q1013 GRN
06:31
V
18 °C 10 km+ 6.300 ft 020° 020° 15 kt METAR EHVL 180431Z AUTO 02015KT 9999 SCT006 SCT010 OVC063 18/17 Q1013 YLO
06:25
I
18 °C 10 km+ 900 ft 020° 020° 15 kt METAR EHVL 180425Z AUTO 02015KT 9999 SCT007 BKN009 BKN010 18/17 Q1013 GRN
06:06
M
18 °C 10 km+ 1.000 ft 020° 020° 14 kt METAR EHVL 180406Z AUTO 02014KT 9999 FEW007 SCT009 BKN010 18/17 Q1013 GRN
05:55
M
18 °C 10 km+ 1.100 ft 010° 010° 16 kt METAR EHVL 180355Z AUTO 01016KT 9999 FEW007 SCT009 BKN011 18/17 Q1012 REDZ GRN
05:44
M
18 °C 10 km+ 1.000 ft 010° 010° 17 kt METAR EHVL 180344Z AUTO 01017KT 9999 SCT006 BKN010 BKN014 18/17 Q1012 YLO
05:35
M
18 °C 6 km 1.100 ft 010° 010° 16 kt METAR EHVL 180335Z AUTO 01016KT 6000 DZRA FEW006 SCT008 BKN011 FEW015CB 18/17 Q1012 GRN
05:30
M
18 °C 6 km 1.000 ft 010° 010° 16 kt METAR EHVL 180330Z AUTO 01016KT 6000 BR FEW006 SCT007 BKN010 FEW015CB 18/17 Q1013 GRN
05:25
M
18 °C 10 km+ 1.000 ft 360° 360° 15 kt METAR EHVL 180325Z AUTO 36015KT 9999 FEW007 SCT008 BKN010 FEW015CB 18/18 Q1013 REDZ GRN
05:20
I
18 °C 10 km+ 800 ft 360° 360° 15 kt METAR EHVL 180320Z AUTO 36015KT 9999 SCT007 BKN008 BKN010 FEW015CB 18/18 Q1013 GRN
05:05
M
18 °C 7 km 1.300 ft 010° 010° 16 kt METAR EHVL 180305Z AUTO 01016KT 7000 DZ FEW006 SCT008 BKN013 FEW015CB 18/17 Q1013 GRN
05:01
M
18 °C 6 km 1.700 ft 010° 010° 16 kt METAR EHVL 180301Z AUTO 01016KT 6000 DZ FEW006 SCT008 FEW015CB OVC017 18/18 Q1013 GRN
04:56
M
18 °C 10 km+ 1.600 ft 010° 010° 16 kt METAR EHVL 180256Z AUTO 01016KT 9999 FEW006 SCT008 FEW015CB OVC016 18/18 Q1013 GRN
04:55
M
18 °C 10 km+ 1.600 ft 010° 010° 16 kt METAR EHVL 180255Z AUTO 01016KT 9999 -DZRA FEW007 SCT011 FEW015CB OVC016 18/18 Q1013 GRN
04:43
M
18 °C 10 km+ 1.000 ft 020° 020° 14 kt METAR EHVL 180243Z AUTO 02014KT 9999 SCT007 SCT008 BKN010 FEW015CB 18/17 Q1013 GRN
04:32
I
18 °C 10 km+ 800 ft 030° 030° 9 kt METAR EHVL 180232Z AUTO 03009KT 300V080 9999 SCT006 BKN008 BKN010 FEW015CB 18/17 Q1013 YLO
04:31
I
18 °C 10 km+ 700 ft Var Var 6 kt METAR EHVL 180231Z AUTO VRB06KT 9999 FEW005 BKN007 BKN010 FEW015CB 18/17 Q1013 GRN
04:21
I
17 °C 5 km 900 ft 250° 250° 2 kt METAR EHVL 180221Z AUTO 25002KT 5000 -SHRA SCT006 SCT007 BKN009 FEW015CB 17/17 Q1013 YLO
04:14
I
17 °C 3,8 km 1.000 ft Var Var 1 kt METAR EHVL 180214Z AUTO VRB01KT 3800 -SHRA FEW009 BKN010 BKN013 FEW015CB 17/17 Q1013 GRN
04:10
M
17 °C 6 km 1.600 ft Var 000° 0 kt METAR EHVL 180210Z AUTO 00000KT 6000 -SHRA SCT010 SCT013 FEW015CB BKN016 17/17 Q1013 GRN
04:00
I
17 °C 4,3 km 1.900 ft Var Var 1 kt METAR EHVL 180200Z AUTO VRB01KT 4300 SHRA FEW000 FEW015CB BKN019 OVC022 17/17 Q1013 GRN
03:55
I
18 °C 3,3 km 2.200 ft Var Var 1 kt METAR EHVL 180155Z AUTO VRB01KT 3300 RA FEW004 SCT012 FEW015CB BKN022 18/17 Q1013 YLO
03:39
I
18 °C 1,7 km 1.100 ft 070° 070° 3 kt METAR EHVL 180139Z AUTO 07003KT 040V100 1700 +RA FEW000 SCT007 BKN011 FEW015CB 18/17 Q1013 YLO
03:32
I
18 °C 1,5 km 1.000 ft 070° 070° 4 kt METAR EHVL 180132Z AUTO 07004KT 040V100 1500 +RA FEW000 SCT006 BKN010 FEW015CB 18/18 Q1013 AMB
03:25
I
18 °C 2 km 1.400 ft 030° 030° 6 kt METAR EHVL 180125Z AUTO 03006KT 360V070 2000 +RA FEW003 SCT009 BKN014 FEW015CB 18/17 Q1013 YLO
03:11
I
18 °C 1,6 km 600 ft 050° 050° 4 kt METAR EHVL 180111Z AUTO 05004KT 1600 +RA FEW003 SCT005 BKN006 FEW015CB 18/17 Q1013 YLO
03:10
I
18 °C 1,7 km 700 ft 050° 050° 5 kt METAR EHVL 180110Z AUTO 05005KT 1700 +RA FEW003 SCT006 BKN007 FEW015CB 18/17 Q1013 YLO
02:55
I
18 °C 2 km 1.000 ft 050° 050° 6 kt METAR EHVL 180055Z AUTO 05006KT 2000 +RA FEW005 SCT006 BKN010 FEW015CB 18/18 Q1013 YLO
02:30
I
18 °C 2,1 km 600 ft 040° 040° 9 kt METAR EHVL 180030Z AUTO 04009KT 2100 +RA FEW005 BKN006 BKN011 FEW015CB 18/18 Q1013 YLO
02:29
I
18 °C 2 km 1.000 ft 040° 040° 10 kt METAR EHVL 180029Z AUTO 04010KT 2000 +SHRA FEW004 SCT006 BKN010 FEW015CB 18/17 Q1013 YLO
02:25
I
18 °C 2,8 km 1.600 ft 040° 040° 10 kt METAR EHVL 180025Z AUTO 04010KT 2800 +SHRA FEW004 SCT006 FEW015CB BKN016 18/17 Q1013 REDZ YLO
02:20
I
18 °C 3,9 km 1.700 ft 040° 040° 12 kt METAR EHVL 180020Z AUTO 04012KT 3900 +SHRA FEW002 SCT006 FEW015CB BKN017 18/17 Q1013 YLO
02:16
I
18 °C 2,1 km 1.800 ft 040° 040° 12 kt METAR EHVL 180016Z AUTO 04012KT 2100 +SHRA FEW002 SCT007 FEW015CB OVC018 18/17 Q1013 YLO
02:07
M
18 °C 6 km 1.600 ft 040° 040° 13 kt METAR EHVL 180007Z AUTO 04013KT 6000 +DZ FEW004 SCT011 FEW015CB BKN016 18/17 Q1013 GRN
01:59
M
19 °C 10 km+ 1.000 ft 030° 030° 14 kt METAR EHVL 172359Z AUTO 03014KT 9999 SCT005 SCT007 BKN010 FEW015CB 19/18 Q1013 YLO
01:55
M
19 °C 10 km+ 2.400 ft 030° 030° 12 kt METAR EHVL 172355Z AUTO 03012KT 350V060 9999 FEW005 SCT010 FEW015CB BKN024 19/18 Q1013 GRN
01:26
M
19 °C 10 km+ 1.300 ft 360° 360° 7 kt METAR EHVL 172326Z AUTO 36007KT 9999 FEW011 BKN013 FEW015CB OVC016 19/17 Q1013 GRN
01:25
M
19 °C 10 km+ 1.600 ft 360° 360° 7 kt METAR EHVL 172325Z AUTO 36007KT 9999 FEW011 SCT014 FEW015CB OVC016 19/17 Q1013 GRN
01:20
M
19 °C 10 km+ 1.400 ft 360° 360° 7 kt METAR EHVL 172320Z AUTO 36007KT 9999 FEW011 BKN014 FEW015CB BKN017 19/17 Q1013 GRN
00:55
V
19 °C 10 km+ 5.000 ft 010° 010° 9 kt METAR EHVL 172255Z AUTO 01009KT 9999 FEW011 FEW015CB OVC050 19/17 Q1013 BLU
00:41
V
19 °C 10 km+ 5.000 ft 010° 010° 11 kt METAR EHVL 172241Z AUTO 01011KT 9999 FEW011 SCT024 OVC050 19/17 Q1013 WHT
00:25
V
19 °C 10 km+ 5.300 ft 010° 010° 11 kt METAR EHVL 172225Z AUTO 01011KT 9999 FEW010 BKN053 BKN098 19/17 Q1013 BLU
00:15
V
19 °C 10 km+ 3.900 ft 010° 010° 11 kt METAR EHVL 172215Z AUTO 01011KT 9999 FEW010 OVC039 19/17 Q1013 BLU

17 août 2022

Temps Code Temps Temp. Vue Base cloud Vent METAR/SPECI
23:55
M
19 °C 10 km+ 1.100 ft 360° 360° 11 kt METAR EHVL 172155Z AUTO 36011KT 9999 FEW009 BKN011 BKN016 19/18 Q1013 GRN
23:33
M
19 °C 10 km+ 1.000 ft 360° 360° 9 kt METAR EHVL 172133Z AUTO 36009KT 9999 FEW008 BKN010 BKN014 19/18 Q1013 GRN
23:25
V
19 °C 10 km+ 3.800 ft 360° 360° 10 kt METAR EHVL 172125Z AUTO 36010KT 9999 FEW009 SCT010 BKN038 19/18 Q1013 GRN
23:17
V
19 °C 10 km+ 4.000 ft 010° 010° 11 kt METAR EHVL 172117Z AUTO 01011KT 9999 FEW009 SCT010 BKN040 19/18 Q1013 GRN
23:11
V
19 °C 10 km+ 4.600 ft 010° 010° 11 kt METAR EHVL 172111Z AUTO 01011KT 9999 FEW010 SCT014 BKN046 19/18 Q1013 GRN
23:07
V
19 °C 10 km+ 4.600 ft 010° 010° 11 kt METAR EHVL 172107Z AUTO 01011KT 9999 FEW011 SCT040 BKN046 19/17 Q1013 BLU
23:03
V
19 °C 10 km+ 6.600 ft 010° 010° 11 kt METAR EHVL 172103Z AUTO 01011KT 9999 FEW011 SCT014 BKN066 19/17 Q1013 GRN
22:59
V
19 °C 10 km+ 4.300 ft 010° 010° 11 kt METAR EHVL 172059Z AUTO 01011KT 9999 FEW011 SCT019 BKN043 19/17 Q1013 WHT
22:55
M
19 °C 10 km+ 1.900 ft 010° 010° 11 kt METAR EHVL 172055Z AUTO 01011KT 9999 FEW011 SCT014 BKN019 19/17 Q1013 GRN
22:43
M
19 °C 10 km+ 1.800 ft 010° 010° 11 kt METAR EHVL 172043Z AUTO 01011KT 9999 SCT010 SCT014 BKN018 19/17 Q1013 GRN
22:41
M
19 °C 10 km+ 1.600 ft 020° 020° 12 kt METAR EHVL 172041Z AUTO 02012KT 9999 -DZ SCT010 SCT013 BKN016 19/18 Q1013 GRN
22:30
V
18 °C 10 km+ 7.000 ft 030° 030° 13 kt METAR EHVL 172030Z AUTO 03013KT 9999 -DZ FEW011 SCT019 OVC070 18/17 Q1013 WHT
22:25
V
18 °C 10 km+ 7.000 ft 030° 030° 13 kt METAR EHVL 172025Z AUTO 03013KT 9999 -DZ FEW019 OVC070 18/17 Q1013 REDZ BLU
22:03
V
18 °C 10 km+ 6.500 ft 030° 030° 13 kt METAR EHVL 172003Z AUTO 03013KT 9999 DZ FEW012/// OVC065/// 18/17 Q1013 BLU
21:55
M
18 °C 10 km+ 1.300 ft 030° 030° 10 kt METAR EHVL 171955Z AUTO 03010KT 9999 -DZ SCT010/// BKN013/// BKN016/// 18/17 Q1013 GRN
21:40
M
18 °C 10 km+ 1.100 ft 040° 040° 10 kt METAR EHVL 171940Z AUTO 04010KT 9999 -DZ FEW009/// BKN011/// BKN046/// 18/17 Q1013 GRN
21:39
V
18 °C 10 km+ 4.900 ft 040° 040° 9 kt METAR EHVL 171939Z AUTO 04009KT 9999 -DZ SCT010 BKN049 OVC056 18/17 Q1013 GRN
21:25
V
18 °C 10 km+ 5.700 ft 030° 030° 10 kt METAR EHVL 171925Z AUTO 03010KT 9999 DZ SCT051 OVC057 18/17 Q1013 BLU
21:00
V
18 °C 10 km+ 5.400 ft 030° 030° 10 kt METAR EHVL 171900Z AUTO 03010KT 9999 -DZ FEW010 BKN054 OVC088 18/17 Q1012 BLU
20:55
V
19 °C 10 km+ 5.400 ft 030° 030° 10 kt METAR EHVL 171855Z AUTO 03010KT 9999 -RADZ FEW010 SCT012 OVC054 19/17 Q1012 RERA REDZ GRN
20:38
V
19 °C 10 km+ 5.500 ft 040° 040° 11 kt METAR EHVL 171838Z AUTO 04011KT 9999 DZ FEW010 BKN055 BKN061 19/17 Q1012 BLU
20:32
V
19 °C 10 km+ 5.100 ft 040° 040° 10 kt METAR EHVL 171832Z AUTO 04010KT 9999 -DZRA BKN051 OVC057 19/17 Q1012 BLU
20:25
V
19 °C 10 km+ 4.700 ft 040° 040° 10 kt METAR EHVL 171825Z AUTO 04010KT 9999 -RA SCT042 BKN047 OVC052 19/17 Q1012 BLU
19:55
V
19 °C 10 km+ 4.300 ft 050° 050° 10 kt METAR EHVL 171755Z AUTO 05010KT 9999 FEW015CB OVC043 19/16 Q1012 BLU
19:25
V
20 °C 10 km+ 4.300 ft 040° 040° 10 kt METAR EHVL 171725Z AUTO 04010KT 9999 FEW015CB BKN043 OVC100 20/17 Q1012 BLU
18:55
V
19 °C 10 km+ 4.300 ft 060° 060° 13 kt METAR EHVL 171655Z AUTO 06013KT 9999 FEW009 FEW015CB BKN043 BKN051 19/17 Q1012 BLU
18:41
V
20 °C 10 km+ 7.500 ft 050° 050° 11 kt METAR EHVL 171641Z AUTO 05011KT 9999 SCT009 FEW015CB SCT049 BKN075 20/18 Q1012 GRN
18:25
V
20 °C 10 km+ 12.700 ft 050° 050° 12 kt METAR EHVL 171625Z AUTO 05012KT 9999 FEW010 FEW015CB SCT073 OVC127 20/18 Q1012 BLU
17:55
V
19 °C 10 km+ 10.000 ft 050° 050° 11 kt METAR EHVL 171555Z AUTO 05011KT 9999 FEW015CB OVC100 19/18 Q1012 BLU
17:43
V
19 °C 10 km+ 5.900 ft 060° 060° 11 kt METAR EHVL 171543Z AUTO 06011KT 9999 -DZRA FEW015CB SCT054 BKN059 19/18 Q1012 BLU
17:25
M
19 °C 10 km+ 1.200 ft 070° 070° 10 kt METAR EHVL 171525Z AUTO 07010KT 9999 SCT010 BKN012 FEW015CB OVC016 19/18 Q1012 REDZ GRN
17:12
I
19 °C 10 km+ 900 ft 060° 060° 10 kt METAR EHVL 171512Z AUTO 06010KT 9999 -DZ TS FEW008 BKN009 BKN011 19/18 Q1012 GRN
16:56
M
19 °C 10 km+ 1.100 ft 040° 040° 12 kt METAR EHVL 171456Z AUTO 04012KT 9999 -RA SCT009 BKN011 BKN013 FEW015CB 19/18 Q1012 GRN
16:55
V
19 °C 10 km+ 8.300 ft 040° 040° 11 kt METAR EHVL 171455Z AUTO 04011KT 9999 -RA SCT010 SCT013 FEW015CB BKN083 19/18 Q1012 GRN
16:42
V
19 °C 9 km 8.400 ft 050° 050° 9 kt METAR EHVL 171442Z AUTO 05009KT 9000 -RA FEW010 FEW015CB SCT072 BKN084 19/18 Q1012 BLU
16:34
M
19 °C 9 km 1.000 ft 050° 050° 8 kt METAR EHVL 171434Z AUTO 05008KT 9000 -SHRA FEW006 SCT009 BKN010 FEW015CB 19/18 Q1012 GRN
16:33
I
19 °C 9 km 900 ft 050° 050° 9 kt METAR EHVL 171433Z AUTO 05009KT 9000 -RA FEW006 SCT008 BKN009 FEW015CB 19/18 Q1012 GRN
16:26
I
19 °C 9 km 900 ft 050° 050° 9 kt METAR EHVL 171426Z AUTO 05009KT 9000 -RA SCT006 SCT008 BKN009 FEW015CB 19/18 Q1012 YLO
16:25
I
19 °C 9 km 800 ft 050° 050° 9 kt METAR EHVL 171425Z AUTO 05009KT 9000 -RA SCT007 BKN008 BKN010 FEW015CB 19/18 Q1012 GRN
16:08
M
19 °C 7 km 1.100 ft 050° 050° 10 kt METAR EHVL 171408Z AUTO 05010KT 7000 -RA FEW008 SCT009 BKN011 FEW015CB 19/18 Q1012 GRN
15:58
V
19 °C 10 km+ 7.400 ft 060° 060° 11 kt METAR EHVL 171358Z AUTO 06011KT 9999 -RA FEW009 FEW015CB BKN074 BKN098 19/17 Q1012 BLU
15:55
V
19 °C 10 km+ 8.700 ft 060° 060° 11 kt METAR EHVL 171355Z AUTO 06011KT 9999 FEW008 SCT010 FEW015CB BKN087 19/17 Q1012 GRN
15:25
V
18 °C 10 km+ 10.000 ft 040° 040° 14 kt METAR EHVL 171325Z AUTO 04014KT 9999 FEW008 OVC100 18/17 Q1012 BLU
15:16
V
18 °C 10 km+ 10.000 ft 040° 040° 14 kt METAR EHVL 171316Z AUTO 04014KT 9999 FEW008 FEW015CB OVC100 18/18 Q1012 BLU
15:03
V
18 °C 10 km+ 10.400 ft 060° 060° 14 kt METAR EHVL 171303Z AUTO 06014KT 9999 FEW007 FEW015CB SCT067 OVC104 18/17 Q1012 BLU
14:55
M
18 °C 7 km 7.000 ft 050° 050° 13 kt METAR EHVL 171255Z AUTO 05013KT 7000 -RADZ FEW002 SCT006 SCT015CB BKN070 18/17 Q1012 RERA YLO
14:36
M
18 °C 5 km 6.800 ft 040° 040° 11 kt METAR EHVL 171236Z AUTO 04011KT 5000 +RA FEW010 SCT015CB BKN068 18/17 Q1013 WHT
14:25
I
18 °C 2,1 km 4.200 ft 080° 080° 3 kt METAR EHVL 171225Z AUTO 08003KT 020V120 2100 +SHRA FEW003 SCT011 SCT015CB BKN042 18/17 Q1013 YLO
14:21
M
19 °C 5 km 4.200 ft 080° 080° 4 kt METAR EHVL 171221Z AUTO 08004KT 030V120 5000 SHRA FEW007 FEW015CB SCT023 BKN042 19/18 Q1013 WHT
14:17
I
19 °C 3,2 km 4.400 ft 060° 060° 5 kt METAR EHVL 171217Z AUTO 06005KT 030V120 3200 +SHRA FEW007 FEW015CB SCT023 BKN044 19/18 Q1013 YLO
14:04
M
19 °C 6 km 5.900 ft 040° 040° 9 kt METAR EHVL 171204Z AUTO 04009KT 6000 -RA FEW005 FEW015CB SCT043 BKN059 19/18 Q1012 WHT
13:55
V
19 °C 10 km+ 7.000 ft 050° 050° 9 kt METAR EHVL 171155Z AUTO 05009KT 9999 RADZ FEW015CB SCT064 BKN070 19/18 Q1012 BLU
13:33
V
19 °C 8 km 8.500 ft 060° 060° 12 kt METAR EHVL 171133Z AUTO 06012KT 8000 -SHRA FEW015CB BKN085 OVC091 19/18 Q1012 BLU
13:28
M
19 °C 6 km 8.700 ft 060° 060° 12 kt METAR EHVL 171128Z AUTO 06012KT 6000 +DZRA FEW015CB BKN087 OVC093 19/18 Q1012 WHT
13:25
V
19 °C 10 km+ 8.900 ft 070° 070° 11 kt METAR EHVL 171125Z AUTO 07011KT 9999 -RADZ FEW015CB BKN089 OVC095 19/18 Q1012 BLU
13:15
V
19 °C 10 km+ 3.600 ft 060° 060° 10 kt METAR EHVL 171115Z AUTO 06010KT 9999 DZRA FEW015CB SCT028 BKN036 19/18 Q1012 BLU
13:04
M
19 °C 6 km 6.400 ft 050° 050° 12 kt METAR EHVL 171104Z AUTO 05012KT 6000 -RA FEW008 FEW015CB SCT017 BKN064 19/18 Q1012 WHT
12:56
M
19 °C 6 km 2.100 ft 050° 050° 12 kt METAR EHVL 171056Z AUTO 05012KT 6000 -SHRA FEW008 SCT010 FEW015CB BKN021 19/19 Q1012 GRN
12:55
M
19 °C 5 km 6.400 ft 050° 050° 12 kt METAR EHVL 171055Z AUTO 05012KT 5000 SHRA FEW009 FEW015CB SCT059 BKN064 19/18 Q1012 WHT
12:44
M
19 °C 5 km 8.800 ft 050° 050° 12 kt METAR EHVL 171044Z AUTO 05012KT 5000 -RA FEW015CB SCT083 BKN088 19/18 Q1012 WHT
12:34
M
20 °C 5 km 8.700 ft 050° 050° 10 kt METAR EHVL 171034Z AUTO 05010KT 5000 RA FEW015CB SCT081 BKN087 20/19 Q1012 WHT
12:28
I
20 °C 4,7 km 7.800 ft 050° 050° 11 kt METAR EHVL 171028Z AUTO 05011KT 4700 RA FEW015CB SCT073 BKN078 OVC100 20/19 Q1012 GRN
12:25
I
20 °C 4,3 km 7.400 ft 050° 050° 11 kt METAR EHVL 171025Z AUTO 05011KT 4300 -RA FEW015CB BKN074 OVC080 20/19 Q1012 RERA REDZ GRN
12:15
M
20 °C 7 km 8.200 ft 050° 050° 10 kt METAR EHVL 171015Z AUTO 05010KT 7000 +DZRA FEW015CB SCT056 BKN082 20/19 Q1012 WHT
12:09
M
20 °C 7 km 7.300 ft 060° 060° 11 kt METAR EHVL 171009Z AUTO 06011KT 7000 -DZ FEW015CB SCT068 BKN073 20/19 Q1012 WHT
11:55
V
20 °C 9 km 7.700 ft 050° 050° 11 kt METAR EHVL 170955Z AUTO 05011KT 9000 BR FEW011 FEW015CB SCT071 OVC077 20/19 Q1012 REDZ BLU
11:35
V
20 °C 8 km 7.000 ft 050° 050° 9 kt METAR EHVL 170935Z AUTO 05009KT 8000 BR FEW015CB BKN070 BKN084 20/19 Q1012 BLU
11:26
M
20 °C 7 km 7.000 ft 050° 050° 9 kt METAR EHVL 170926Z AUTO 05009KT 7000 -DZRA FEW015CB SCT054 BKN070 20/19 Q1012 WHT
11:25
M
20 °C 7 km 7.100 ft 050° 050° 10 kt METAR EHVL 170925Z AUTO 05010KT 7000 -RA FEW015CB SCT054 BKN071 20/19 Q1012 WHT
11:00
M
19 °C 7 km 7.200 ft 060° 060° 10 kt METAR EHVL 170900Z AUTO 06010KT 7000 -SHRA SCT015CB BKN072 OVC079 19/19 Q1012 WHT
10:55
M
20 °C 6 km 7.900 ft 060° 060° 10 kt METAR EHVL 170855Z AUTO 06010KT 6000 -RA SCT015CB SCT073 BKN079 OVC084 20/19 Q1012 WHT
10:40
M
19 °C 5 km 1.500 ft 060° 060° 9 kt METAR EHVL 170840Z AUTO 06009KT 5000 -SHRA FEW007 BKN015CB BKN076 19/19 Q1012 WHT
10:27
M
20 °C 5 km 8.400 ft 060° 060° 9 kt METAR EHVL 170827Z AUTO 06009KT 5000 -SHRA FEW005 SCT015CB BKN084 20/19 Q1012 WHT
10:25
I
20 °C 4,5 km 8.000 ft 060° 060° 10 kt METAR EHVL 170825Z AUTO 06010KT 4500 SHRA FEW005 SCT015CB BKN080 20/19 Q1012 GRN
10:17
M
20 °C 7 km 8.400 ft 060° 060° 10 kt METAR EHVL 170817Z AUTO 06010KT 7000 -SHRA FEW008 FEW015CB SCT073 BKN084 20/19 Q1012 WHT
10:10
M
20 °C 7 km 9.100 ft 060° 060° 10 kt METAR EHVL 170810Z AUTO 06010KT 7000 -RA FEW008 FEW015CB BKN091 OVC098 20/19 Q1012 WHT
10:04
M
20 °C 5 km 9.900 ft 050° 050° 9 kt METAR EHVL 170804Z AUTO 05009KT 5000 -SHRA FEW007 FEW015CB SCT087 OVC099 20/19 Q1012 WHT
09:55
M
19 °C 5 km 9.800 ft 050° 050° 11 kt METAR EHVL 170755Z AUTO 05011KT 5000 SHRA FEW006 FEW015CB SCT078 OVC098 19/19 Q1011 REDZ WHT
09:36
M
20 °C 6 km 7.200 ft 060° 060° 11 kt METAR EHVL 170736Z AUTO 06011KT 6000 -SHRA +DZ SCT015CB BKN072 BKN078 BKN084 20/19 Q1011 WHT
09:29
M
20 °C 6 km 7.200 ft 060° 060° 11 kt METAR EHVL 170729Z AUTO 06011KT 6000 -RA FEW008 SCT015CB BKN072 BKN079 20/19 Q1011 WHT
09:25
M
20 °C 5 km 7.200 ft 050° 050° 12 kt METAR EHVL 170725Z AUTO 05012KT 5000 -SHRA FEW007 SCT009 SCT015CB BKN072 20/19 Q1011 GRN
09:15
I
20 °C 4,3 km 1.000 ft 050° 050° 13 kt METAR EHVL 170715Z AUTO 05013KT 4300 RA FEW007 SCT008 BKN010 FEW015CB 20/19 Q1011 GRN
09:03
I
20 °C 6 km 700 ft 040° 040° 14 kt METAR EHVL 170703Z AUTO 04014KT 6000 -RA BKN007 BKN008 BKN011 FEW015CB 20/19 Q1011 GRN
08:55
M
20 °C 6 km 1.000 ft 030° 030° 13 kt METAR EHVL 170655Z AUTO 03013KT 6000 -SHRA SCT007 SCT009 BKN010 FEW015CB 20/19 Q1011 GRN
08:44
V
20 °C 8 km 9.800 ft 030° 030° 11 kt METAR EHVL 170644Z AUTO 03011KT 8000 -RA FEW007 FEW015CB BKN098 OVC108 20/19 Q1011 BLU
08:31
M
20 °C 7 km 6.400 ft 020° 020° 11 kt METAR EHVL 170631Z AUTO 02011KT 7000 -RA SCT007 SCT009 FEW015CB BKN064 20/19 Q1011 GRN
08:25
M
20 °C 9 km 1.000 ft 020° 020° 11 kt METAR EHVL 170625Z AUTO 02011KT 9000 -SHRA FEW007 SCT009 BKN010 FEW015CB 20/19 Q1011 GRN
08:11
M
20 °C 7 km 1.000 ft 030° 030° 9 kt METAR EHVL 170611Z AUTO 03009KT 7000 -SHRA SCT008 BKN010 BKN013 FEW015CB 20/19 Q1011 GRN
08:07
M
20 °C 7 km 9.200 ft 030° 030° 9 kt METAR EHVL 170607Z AUTO 03009KT 7000 -RA SCT008 SCT010 FEW015CB BKN092 20/19 Q1011 GRN
08:00
V
20 °C 8 km 7.100 ft 020° 020° 9 kt METAR EHVL 170600Z AUTO 02009KT 8000 -RA FEW002 SCT009 FEW015CB OVC071 20/19 Q1011 GRN
07:55
V
19 °C 8 km 7.100 ft 020° 020° 8 kt METAR EHVL 170555Z AUTO 02008KT 8000 -RA FEW015CB OVC071 19/19 Q1011 BLU
07:38
V
19 °C 9 km 7.100 ft 020° 020° 6 kt METAR EHVL 170538Z AUTO 02006KT 9000 -DZRA FEW015CB BKN071 OVC076 19/19 Q1011 BLU
07:25
M
19 °C 6 km 7.000 ft 040° 040° 2 kt METAR EHVL 170525Z AUTO 04002KT 6000 -DZ FEW015CB OVC070 19/18 Q1012 WHT
07:19
V
19 °C 10 km+ 6.600 ft Var Var 2 kt METAR EHVL 170519Z AUTO VRB02KT 9999 -DZ FEW014 FEW015CB OVC066 19/18 Q1012 BLU
07:07
V
19 °C 9 km 6.600 ft Var Var 1 kt METAR EHVL 170507Z AUTO VRB01KT 9000 BR SCT013 FEW015CB OVC066 19/19 Q1012 GRN
07:04
V
19 °C 8 km 6.500 ft 010° 010° 2 kt METAR EHVL 170504Z AUTO 01002KT 8000 BR FEW009 OVC065 19/19 Q1012 BLU
06:55
M
19 °C 10 km+ 1.400 ft Var Var 2 kt METAR EHVL 170455Z AUTO VRB02KT 9999 FEW009 SCT011 BKN014 FEW015CB 19/19 Q1012 GRN
06:37
M
19 °C 9 km 1.300 ft 060° 060° 3 kt METAR EHVL 170437Z AUTO 06003KT 9000 BR FEW009 SCT011 BKN013 19/19 Q1011 GRN
06:30
V
19 °C 8 km 6.400 ft 050° 050° 4 kt METAR EHVL 170430Z AUTO 05004KT 8000 BR SCT011 SCT017 BKN064 19/19 Q1011 GRN
06:25
V
19 °C 8 km 7.000 ft 050° 050° 7 kt METAR EHVL 170425Z AUTO 05007KT 8000 BR SCT010 SCT017 BKN070 19/19 Q1011 GRN
06:14
V
19 °C 8 km 7.100 ft 050° 050° 8 kt METAR EHVL 170414Z AUTO 05008KT 8000 BR SCT010 SCT013 BKN071 19/19 Q1011 GRN
05:55
M
19 °C 6 km 8.500 ft 050° 050° 9 kt METAR EHVL 170355Z AUTO 05009KT 6000 BR BKN085 OVC170 19/18 Q1010 WHT
05:25
M
19 °C 6 km 20.000 ft 050° 050° 9 kt METAR EHVL 170325Z AUTO 05009KT 6000 BR OVC200 19/18 Q1010 WHT
04:55
M
19 °C 6 km 13.000 ft 050° 050° 9 kt METAR EHVL 170255Z AUTO 05009KT 6000 BR BKN130 OVC270 19/18 Q1010 WHT
04:42
M
19 °C 6 km 13.000 ft 050° 050° 9 kt METAR EHVL 170242Z AUTO 05009KT 6000 BR FEW008 BKN130 OVC290 19/18 Q1010 WHT
04:25
I
19 °C 7 km 800 ft 050° 050° 7 kt METAR EHVL 170225Z AUTO 05007KT 7000 BR OVC008 19/18 Q1010 GRN
04:13
I
18 °C 6 km 800 ft 050° 050° 6 kt METAR EHVL 170213Z AUTO 05006KT 6000 BR BKN008 OVC120 18/18 Q1010 GRN
03:55
M
19 °C 5 km 12.000 ft 040° 040° 7 kt METAR EHVL 170155Z AUTO 04007KT 5000 BR OVC120 19/18 Q1010 WHT
03:43
M
19 °C 5 km 12.000 ft 050° 050° 6 kt METAR EHVL 170143Z AUTO 05006KT 5000 BR OVC120 19/18 Q1010 WHT
03:27
M
19 °C 5 km 12.000 ft 040° 040° 6 kt METAR EHVL 170127Z AUTO 04006KT 5000 BR OVC120 19/18 Q1010 WHT
03:25
I
19 °C 4,8 km 12.000 ft 040° 040° 6 kt METAR EHVL 170125Z AUTO 04006KT 4800 BR OVC120 19/18 Q1010 GRN
03:17
M
19 °C 5 km 12.000 ft 050° 050° 6 kt METAR EHVL 170117Z AUTO 05006KT 5000 BR OVC120 19/18 Q1010 WHT
03:09
I
19 °C 4,6 km 12.000 ft 050° 050° 6 kt METAR EHVL 170109Z AUTO 05006KT 4600 BR OVC120 19/18 Q1010 GRN
02:55
M
19 °C 6 km 12.000 ft 050° 050° 6 kt METAR EHVL 170055Z AUTO 05006KT 6000 BR OVC120 19/18 Q1011 WHT
02:39
M
19 °C 5 km 11.000 ft 030° 030° 7 kt METAR EHVL 170039Z AUTO 03007KT 5000 BR OVC110 19/18 Q1010 WHT
02:25
M
19 °C 6 km 11.000 ft 050° 050° 5 kt METAR EHVL 170025Z AUTO 05005KT 6000 BR OVC110 19/18 Q1011 WHT
02:10
M
19 °C 7 km 10.000 ft 060° 060° 6 kt METAR EHVL 170010Z AUTO 06006KT 7000 BR OVC100 19/18 Q1010 WHT
02:04
V
19 °C 8 km 10.000 ft 060° 060° 7 kt METAR EHVL 170004Z AUTO 06007KT 8000 BR OVC100 19/18 Q1010 BLU
01:55
M
19 °C 7 km 10.000 ft 050° 050° 5 kt METAR EHVL 162355Z AUTO 05005KT 7000 BR FEW098 OVC100 19/18 Q1011 WHT
01:42
M
19 °C 7 km 10.000 ft 060° 060° 5 kt METAR EHVL 162342Z AUTO 06005KT 7000 BR OVC100 19/18 Q1011 WHT
01:34
V
19 °C 9 km 11.000 ft 060° 060° 5 kt METAR EHVL 162334Z AUTO 06005KT 9000 BR OVC110 19/18 Q1011 BLU
01:25
M
19 °C 6 km 11.000 ft 050° 050° 5 kt METAR EHVL 162325Z AUTO 05005KT 6000 BR OVC110 19/18 Q1011 WHT
01:01
M
19 °C 7 km 10.000 ft 060° 060° 5 kt METAR EHVL 162301Z AUTO 06005KT 7000 BR OVC100 19/18 Q1011 WHT
00:55
V
19 °C 8 km 10.000 ft 060° 060° 5 kt METAR EHVL 162255Z AUTO 06005KT 8000 BR OVC100 19/18 Q1011 BLU
00:25
V
19 °C 10 km+ 12.000 ft 060° 060° 4 kt METAR EHVL 162225Z AUTO 06004KT 9999 OVC120 19/18 Q1011 BLU

16 août 2022

Temps Code Temps Temp. Vue Base cloud Vent METAR/SPECI
23:55
V
19 °C 10 km+ 11.000 ft 060° 060° 3 kt METAR EHVL 162155Z AUTO 06003KT 030V100 9999 OVC110 19/18 Q1011 BLU
23:25
V
19 °C 10 km+ 10.000 ft 020° 020° 7 kt METAR EHVL 162125Z AUTO 02007KT 9999 OVC100 19/18 Q1011 BLU
22:55
V
19 °C 8 km 13.000 ft 010° 010° 7 kt METAR EHVL 162055Z AUTO 01007KT 8000 BR OVC130 19/18 Q1010 BLU
22:25
V
19 °C 8 km 31.000 ft 350° 350° 7 kt METAR EHVL 162025Z AUTO 35007KT 8000 BR FEW007 OVC310 19/18 Q1010 BLU
22:20
V
19 °C 8 km 30.000 ft 350° 350° 6 kt METAR EHVL 162020Z AUTO 35006KT 8000 BR FEW007 OVC300 19/18 Q1010 BLU
22:07
V
19 °C 8 km 26.000 ft 340° 340° 8 kt METAR EHVL 162007Z AUTO 34008KT 8000 BR FEW006 OVC260 19/18 Q1010 BLU
22:00
M
19 °C 7 km 26.000 ft 340° 340° 7 kt METAR EHVL 162000Z AUTO 34007KT 7000 BR FEW140 OVC260 19/18 Q1010 WHT
21:55
V
19 °C 9 km 14.000 ft 340° 340° 7 kt METAR EHVL 161955Z AUTO 34007KT 9000 BR OVC140 19/18 Q1010 BLU
21:25
V
19 °C 9 km 14.000 ft 330° 330° 7 kt METAR EHVL 161925Z AUTO 33007KT 9000 BR OVC140 19/18 Q1010 BLU
20:55
V
20 °C 10 km+ 21.000 ft 320° 320° 5 kt METAR EHVL 161855Z AUTO 32005KT 9999 SCT130 OVC210 20/18 Q1010 BLU
20:25
V
20 °C 10 km+ 11.000 ft 290° 290° 4 kt METAR EHVL 161825Z AUTO 29004KT 260V320 9999 OVC110 20/18 Q1009 BLU
19:55
V
20 °C 10 km+ 13.000 ft 280° 280° 4 kt METAR EHVL 161755Z AUTO 28004KT 9999 OVC130 20/18 Q1009 BLU
19:25
V
21 °C 10 km+ 12.000 ft 310° 310° 4 kt METAR EHVL 161725Z AUTO 31004KT 260V330 9999 OVC120 21/18 Q1009 BLU
18:55
V
21 °C 10 km+ 14.000 ft 290° 290° 7 kt METAR EHVL 161655Z AUTO 29007KT 9999 OVC140 21/18 Q1009 BLU
18:25
V
21 °C 10 km+ 13.000 ft 280° 280° 7 kt METAR EHVL 161625Z AUTO 28007KT 9999 FEW007 OVC130 21/18 Q1009 BLU
17:55
V
22 °C 10 km+ 14.000 ft 270° 270° 8 kt METAR EHVL 161555Z AUTO 27008KT 9999 OVC140 22/18 Q1009 BLU
17:35
V
22 °C 10 km+ 14.000 ft 260° 260° 7 kt METAR EHVL 161535Z AUTO 26007KT 230V300 9999 FEW008 OVC140 22/18 Q1009 BLU
17:25
V
22 °C 10 km+ 14.000 ft 270° 270° 9 kt METAR EHVL 161525Z AUTO 27009KT 9999 FEW008 OVC140 22/18 Q1009 BLU
16:55
V
23 °C 10 km+ 17.000 ft 270° 270° 10 kt METAR EHVL 161455Z AUTO 27010KT 9999 OVC170 23/18 Q1009 BLU
Données plus anciennes

Nous et des tiers suivons ton comportement sur Internet sur notre site Web à l'aide de cookies. Si tu continues, nous supposons que tu acceptes notre politique en matière de cookies. Apprendre plus